Time;durP1;ratioP1;P1;durP2;ratioP2;P2;SDS_P1;SDS_P2;PMS_P1;PMS_P2;Temp;Humidity;BMP_temperature;BMP_pressure;BME280_temperature;BME280_humidity;BME280_pressure;Samples;Min_cycle;Max_cycle;Signal;HPM_P1;HPM_P2
2022/12/26 00:01:59;;;;;;;40.10;28.90;;;12.50;92.50;;;;;;6249298;22;20033;-75
2022/12/26 00:04:24;;;;;;;41.78;30.80;;;12.50;92.80;;;;;;6249257;22;20012;-82
2022/12/26 00:06:50;;;;;;;48.40;32.00;;;12.50;92.70;;;;;;6277153;22;20034;-81
2022/12/26 00:09:16;;;;;;;44.03;30.95;;;12.50;92.90;;;;;;6278539;22;19999;-81
2022/12/26 00:11:42;;;;;;;43.70;30.45;;;12.50;92.90;;;;;;6248934;22;20004;-76
2022/12/26 00:14:12;;;;;;;42.67;30.23;;;12.50;92.90;;;;;;6248389;22;20031;-76
2022/12/26 00:16:40;;;;;;;41.75;29.95;;;12.40;92.90;;;;;;6248004;22;20007;-75
2022/12/26 00:19:06;;;;;;;40.50;29.02;;;12.40;92.80;;;;;;6275545;22;20000;-75
2022/12/26 00:21:31;;;;;;;42.85;30.90;;;12.50;93.00;;;;;;6274862;22;20007;-75
2022/12/26 00:23:58;;;;;;;41.97;29.80;;;12.40;93.00;;;;;;6274605;22;20010;-82
2022/12/26 00:26:26;;;;;;;40.55;30.25;;;12.40;93.00;;;;;;6275549;22;20053;-82
2022/12/26 00:28:53;;;;;;;41.00;29.55;;;12.50;93.00;;;;;;6276098;22;20027;-82
2022/12/26 00:31:22;;;;;;;43.58;30.83;;;12.50;93.00;;;;;;6276195;22;20045;-82
2022/12/26 00:33:48;;;;;;;40.85;29.08;;;12.50;93.00;;;;;;6275009;22;20027;-82
2022/12/26 00:36:18;;;;;;;41.80;31.13;;;12.50;93.00;;;;;;6276241;22;19999;-82
2022/12/26 00:38:44;;;;;;;43.03;29.75;;;12.50;93.00;;;;;;6276022;22;20322;-82
2022/12/26 00:41:11;;;;;;;42.30;30.85;;;12.50;93.00;;;;;;6276509;22;20082;-81
2022/12/26 00:43:37;;;;;;;39.25;29.60;;;12.50;93.00;;;;;;6275635;22;20004;-82
2022/12/26 00:46:04;;;;;;;42.03;31.38;;;12.50;93.00;;;;;;6274923;22;20022;-82
2022/12/26 00:48:30;;;;;;;43.40;31.63;;;12.50;93.10;;;;;;6275892;22;20000;-81
2022/12/26 00:50:56;;;;;;;44.45;33.40;;;12.40;93.10;;;;;;6275756;22;20023;-81
2022/12/26 00:53:24;;;;;;;42.33;31.42;;;12.40;93.00;;;;;;6276190;22;20003;-80
2022/12/26 00:55:50;;;;;;;42.28;30.42;;;12.50;93.20;;;;;;6275384;22;20054;-80
2022/12/26 00:58:17;;;;;;;43.33;31.70;;;12.50;93.20;;;;;;6275461;22;20137;-80
2022/12/26 01:00:43;;;;;;;44.50;31.67;;;12.50;93.20;;;;;;6275366;22;20008;-81
2022/12/26 01:03:10;;;;;;;40.63;30.27;;;12.50;93.20;;;;;;6249147;22;20011;-81
2022/12/26 01:05:44;;;;;;;41.50;29.95;;;12.60;93.20;;;;;;6275644;22;20012;-80
2022/12/26 01:08:10;;;;;;;42.00;30.27;;;12.60;93.20;;;;;;6275594;22;20004;-80
2022/12/26 01:10:38;;;;;;;42.17;31.17;;;12.60;93.20;;;;;;6274796;22;20019;-74
2022/12/26 01:13:04;;;;;;;40.33;29.67;;;12.60;93.20;;;;;;6274856;22;20000;-74
2022/12/26 01:15:30;;;;;;;42.65;30.23;;;12.60;93.30;;;;;;6273133;22;19999;-74
2022/12/26 01:17:58;;;;;;;42.60;31.40;;;12.60;93.30;;;;;;6274683;22;20011;-74
2022/12/26 01:20:24;;;;;;;43.20;31.23;;;12.60;93.30;;;;;;6275124;22;20486;-73
2022/12/26 01:22:50;;;;;;;42.60;31.65;;;12.60;93.10;;;;;;6275927;22;20029;-74
2022/12/26 01:25:15;;;;;;;43.65;31.55;;;12.60;93.30;;;;;;6275927;22;20311;-74
2022/12/26 01:27:41;;;;;;;43.45;30.98;;;12.60;93.30;;;;;;6274680;22;20000;-73
2022/12/26 01:30:08;;;;;;;44.50;33.08;;;12.60;93.30;;;;;;6247992;22;20008;-79
2022/12/26 01:32:33;;;;;;;42.97;31.25;;;12.60;93.40;;;;;;6277628;22;20327;-79
2022/12/26 01:34:59;;;;;;;43.10;31.27;;;12.60;93.40;;;;;;6277694;22;20060;-79
2022/12/26 01:37:25;;;;;;;43.50;30.73;;;12.60;93.40;;;;;;6277757;22;20003;-80
2022/12/26 01:39:51;;;;;;;40.65;30.15;;;12.60;93.40;;;;;;6277992;22;19995;-80
2022/12/26 01:42:23;;;;;;;42.78;31.30;;;12.60;93.40;;;;;;6250006;22;20000;-82
2022/12/26 01:44:57;;;;;;;44.40;31.40;;;12.60;93.50;;;;;;6277120;22;20025;-80
2022/12/26 01:47:36;;;;;;;42.55;31.13;;;12.60;93.50;;;;;;6277525;22;19995;-78
2022/12/26 01:50:05;;;;;;;42.72;31.60;;;12.60;93.60;;;;;;6277525;22;19999;-79
2022/12/26 01:52:41;;;;;;;44.20;31.17;;;12.60;93.60;;;;;;6277299;22;20028;-78
2022/12/26 01:55:10;;;;;;;40.35;30.15;;;12.60;93.60;;;;;;6276830;22;20015;-73
2022/12/26 01:57:41;;;;;;;43.70;32.25;;;12.60;93.60;;;;;;6276923;22;20008;-74
2022/12/26 02:00:07;;;;;;;41.67;31.02;;;12.50;93.60;;;;;;6277590;22;20011;-74
2022/12/26 02:05:32;;;;;;;40.97;29.55;;;12.50;93.60;;;;;;6276559;22;20294;-74
2022/12/26 02:05:34;;;;;;;41.70;30.17;;;12.50;93.60;;;;;;6275327;22;20464;-74
2022/12/26 02:08:08;;;;;;;39.22;29.95;;;12.50;93.60;;;;;;6276639;22;20011;-75
2022/12/26 02:11:20;;;;;;;40.38;30.75;;;12.50;93.60;;;;;;6276796;22;20314;-76
2022/12/26 02:13:46;;;;;;;43.88;32.42;;;12.50;93.60;;;;;;6270270;22;19999;-75
2022/12/26 02:16:13;;;;;;;44.50;32.33;;;12.50;93.60;;;;;;6277340;22;19996;-75
2022/12/26 02:18:40;;;;;;;42.47;32.55;;;;;;;;;;6276278;22;20010;-75
2022/12/26 02:21:21;;;;;;;45.60;32.50;;;12.40;93.40;;;;;;6277039;22;20007;-75
2022/12/26 02:24:18;;;;;;;43.40;33.33;;;12.40;93.60;;;;;;6276759;22;20003;-76
2022/12/26 02:26:56;;;;;;;47.20;34.13;;;12.30;93.60;;;;;;6277054;22;20110;-75
2022/12/26 02:29:40;;;;;;;46.97;34.83;;;12.30;93.60;;;;;;6276440;22;20039;-75
2022/12/26 02:32:27;;;;;;;46.33;34.03;;;12.30;93.70;;;;;;6276084;22;19996;-75
2022/12/26 02:34:53;;;;;;;48.15;33.13;;;12.30;93.70;;;;;;6276499;22;20067;-75
2022/12/26 02:37:40;;;;;;;46.17;33.72;;;12.30;93.70;;;;;;6275751;22;20023;-75
2022/12/26 02:40:24;;;;;;;46.47;33.55;;;12.30;93.70;;;;;;6275714;22;20031;-75
2022/12/26 02:42:57;;;;;;;46.67;33.60;;;12.30;93.70;;;;;;6276637;22;20003;-75
2022/12/26 02:49:04;;;;;;;44.30;32.10;;;12.30;93.70;;;;;;6276425;22;20019;-75
2022/12/26 03:15:25;;;;;;;42.28;30.90;;;12.40;93.60;;;;;;6275861;22;20014;-75
2022/12/26 03:18:01;;;;;;;45.03;31.50;;;12.40;93.60;;;;;;6276380;22;20445;-75
2022/12/26 03:20:30;;;;;;;43.65;31.25;;;12.40;93.50;;;;;;6276032;22;20063;-75
2022/12/26 03:22:55;;;;;;;41.92;30.90;;;12.30;93.50;;;;;;6274891;22;20136;-75
2022/12/26 03:28:23;;;;;;;44.03;30.67;;;12.30;93.50;;;;;;6276428;22;20066;-75
2022/12/26 03:30:49;;;;;;;44.22;32.63;;;12.30;93.50;;;;;;6275900;22;20003;-74
2022/12/26 03:36:26;;;;;;;41.35;32.13;;;12.30;93.40;;;;;;6276242;22;20011;-74
2022/12/26 03:39:08;;;;;;;43.03;32.63;;;12.30;93.40;;;;;;6276336;22;20424;-74
2022/12/26 04:21:05;;;;;;;44.05;32.60;;;12.20;93.20;;;;;;6275502;22;20026;-73
2022/12/26 04:46:14;;;;;;;43.00;30.80;;;12.00;93.50;;;;;;6274407;22;20057;-74
2022/12/26 04:51:28;;;;;;;40.33;30.50;;;11.90;93.40;;;;;;6274876;22;20015;-75
2022/12/26 04:54:00;;;;;;;43.35;30.67;;;11.90;93.60;;;;;;6275306;22;20003;-75
2022/12/26 04:56:26;;;;;;;41.83;31.42;;;11.90;93.60;;;;;;6275422;22;20496;-75
2022/12/26 04:58:51;;;;;;;43.88;32.25;;;11.90;93.70;;;;;;6274242;22;20043;-74
2022/12/26 05:09:33;;;;;;;42.65;30.17;;;11.90;93.60;;;;;;6276716;22;20061;-75
2022/12/26 05:11:59;;;;;;;38.85;29.00;;;11.90;93.60;;;;;;6250101;22;20372;-75
2022/12/26 05:14:24;;;;;;;42.55;31.38;;;11.90;93.90;;;;;;6277879;22;20000;-75
2022/12/26 05:30:37;;;;;;;45.90;34.15;;;11.80;93.70;;;;;;6277006;22;20034;-75
2022/12/26 05:35:47;;;;;;;45.80;33.65;;;11.80;93.70;;;;;;6276759;22;20018;-75
2022/12/26 05:38:13;;;;;;;46.70;33.72;;;11.80;93.70;;;;;;6277115;22;20004;-75
2022/12/26 05:40:39;;;;;;;44.15;32.00;;;11.80;93.60;;;;;;6249394;22;20461;-75
2022/12/26 05:43:05;;;;;;;46.83;34.53;;;11.80;93.70;;;;;;6249690;22;20012;-75
2022/12/26 05:45:30;;;;;;;45.65;31.60;;;11.80;93.70;;;;;;6276333;22;20430;-75
2022/12/26 05:48:00;;;;;;;44.30;32.05;;;11.80;93.70;;;;;;6276737;22;20426;-76
2022/12/26 05:50:26;;;;;;;45.17;32.72;;;11.70;93.60;;;;;;6250314;22;20007;-76
2022/12/26 05:52:52;;;;;;;43.08;32.90;;;11.70;93.80;;;;;;6277438;22;19996;-76
2022/12/26 05:55:18;;;;;;;45.47;33.90;;;;;;;;;;6277435;22;20006;-76
2022/12/26 05:57:44;;;;;;;50.83;35.10;;;11.70;93.60;;;;;;6250195;22;20015;-75
2022/12/26 06:00:10;;;;;;;45.92;32.70;;;11.70;93.80;;;;;;6276343;22;20457;-76
2022/12/26 06:02:36;;;;;;;47.47;34.65;;;11.60;93.80;;;;;;6276441;22;20050;-76
2022/12/26 06:05:02;;;;;;;41.78;32.50;;;11.60;93.80;;;;;;6249632;22;20008;-74
2022/12/26 06:07:27;;;;;;;47.55;34.10;;;11.60;93.90;;;;;;6277407;22;19996;-73
2022/12/26 06:09:53;;;;;;;41.05;31.20;;;11.50;93.90;;;;;;6276719;22;20004;-75
2022/12/26 06:12:19;;;;;;;43.75;32.97;;;11.50;94.00;;;;;;6276956;22;20014;-75
2022/12/26 06:14:45;;;;;;;47.35;33.38;;;11.40;94.00;;;;;;6275557;22;20003;-74
2022/12/26 06:17:10;;;;;;;46.67;32.90;;;11.50;94.10;;;;;;6275595;22;20003;-75
2022/12/26 06:19:36;;;;;;;48.72;34.95;;;11.50;94.10;;;;;;6277083;22;19999;-75
2022/12/26 06:22:02;;;;;;;41.65;31.50;;;11.40;94.10;;;;;;6276844;22;20076;-74
2022/12/26 06:24:27;;;;;;;40.53;30.23;;;11.30;94.20;;;;;;6276587;22;20027;-74
2022/12/26 06:26:53;;;;;;;43.53;32.53;;;11.30;94.00;;;;;;6249297;22;20014;-74
2022/12/26 06:29:18;;;;;;;43.47;33.28;;;11.30;94.20;;;;;;6276526;22;20330;-74
2022/12/26 06:31:44;;;;;;;41.95;32.35;;;11.30;94.20;;;;;;6276072;22;20003;-74
2022/12/26 06:34:10;;;;;;;46.70;33.42;;;11.30;94.20;;;;;;6276444;22;20024;-75
2022/12/26 06:36:36;;;;;;;46.65;33.05;;;11.30;94.30;;;;;;6276487;22;20003;-75
2022/12/26 06:39:15;;;;;;;47.38;34.83;;;11.30;94.30;;;;;;6248765;22;20008;-76
2022/12/26 06:41:42;;;;;;;;;;;11.30;94.30;;;;;;6249151;22;20004;-76
2022/12/26 06:44:09;;;;;;;44.35;31.92;;;11.30;94.20;;;;;;6249855;22;19911;-77
2022/12/26 06:46:35;;;;;;;48.60;33.20;;;11.30;94.40;;;;;;6276146;22;20010;-76
2022/12/26 06:49:00;;;;;;;43.15;32.95;;;11.40;94.40;;;;;;6275840;22;20057;-76
2022/12/26 06:51:27;;;;;;;43.85;33.55;;;11.40;94.40;;;;;;6275065;22;20438;-74
2022/12/26 06:53:53;;;;;;;42.05;31.63;;;11.40;94.30;;;;;;6276334;22;20000;-73
2022/12/26 06:56:22;;;;;;;48.03;32.38;;;11.50;94.40;;;;;;6277139;22;20078;-72
2022/12/26 06:58:54;;;;;;;46.08;34.22;;;11.50;94.30;;;;;;6275494;22;20300;-72
2022/12/26 07:01:20;;;;;;;47.15;34.13;;;11.60;94.00;;;;;;6275783;22;20086;-72
2022/12/26 07:03:47;;;;;;;44.40;33.83;;;11.50;94.10;;;;;;6276164;22;20000;-72
2022/12/26 07:06:36;;;;;;;44.35;32.92;;;11.50;94.30;;;;;;6276282;22;20473;-71
2022/12/26 07:09:09;;;;;;;44.22;32.58;;;11.60;94.20;;;;;;6275719;22;20492;-70
2022/12/26 07:11:37;;;;;;;48.10;35.65;;;11.60;94.10;;;;;;6275112;22;20330;-71
2022/12/26 07:14:04;;;;;;;43.78;33.10;;;11.60;93.90;;;;;;6275708;22;19996;-71
2022/12/26 07:16:30;;;;;;;46.47;34.25;;;11.60;93.90;;;;;;6276165;22;20012;-71
2022/12/26 07:18:57;;;;;;;46.83;33.53;;;11.60;93.90;;;;;;6248703;22;20012;-70
2022/12/26 07:21:24;;;;;;;47.22;34.85;;;11.60;93.80;;;;;;6276365;22;20007;-73
2022/12/26 07:23:52;;;;;;;43.60;33.58;;;11.60;93.80;;;;;;6246858;22;20392;-71
2022/12/26 07:26:18;;;;;;;43.55;32.35;;;11.70;93.80;;;;;;6247673;22;20685;-70
2022/12/26 07:28:44;;;;;;;50.00;34.97;;;11.70;93.80;;;;;;6275585;22;20004;-70
2022/12/26 07:31:18;;;;;;;45.75;33.90;;;11.70;93.80;;;;;;6275375;22;20004;-70
2022/12/26 07:33:48;;;;;;;42.63;33.33;;;11.70;93.80;;;;;;6275633;22;20000;-77
2022/12/26 07:36:13;;;;;;;47.67;34.67;;;11.70;93.80;;;;;;6276086;22;20007;-78
2022/12/26 07:38:39;;;;;;;44.45;33.53;;;11.70;93.70;;;;;;6276387;22;20004;-78
2022/12/26 07:43:50;;;;;;;44.85;33.53;;;11.70;93.80;;;;;;6275121;22;20110;-78
2022/12/26 07:46:16;;;;;;;44.95;33.03;;;11.70;93.60;;;;;;6275014;22;20414;-77
2022/12/26 07:48:41;;;;;;;45.75;33.00;;;11.70;93.80;;;;;;6275380;22;20003;-76
2022/12/26 07:51:08;;;;;;;42.88;32.83;;;11.70;93.80;;;;;;6275729;22;20314;-75
2022/12/26 07:53:34;;;;;;;41.95;30.30;;;11.70;93.80;;;;;;6275442;22;20010;-76
2022/12/26 07:56:01;;;;;;;46.65;32.50;;;11.70;93.90;;;;;;6275163;22;20326;-77
2022/12/26 07:58:27;;;;;;;42.63;32.03;;;11.80;93.80;;;;;;6275217;22;20022;-82
2022/12/26 08:00:53;;;;;;;46.88;32.80;;;11.80;93.70;;;;;;6275172;22;20023;-77
2022/12/26 08:03:20;;;;;;;41.60;30.33;;;11.70;93.90;;;;;;6275367;22;20004;-76
2022/12/26 08:05:48;;;;;;;39.60;30.20;;;11.70;93.60;;;;;;6274004;22;20007;-79
2022/12/26 08:08:14;;;;;;;43.13;32.08;;;11.70;93.70;;;;;;6274700;22;20010;-74
2022/12/26 08:10:40;;;;;;;42.83;31.42;;;11.60;93.70;;;;;;6275187;22;20010;-71
2022/12/26 08:13:09;;;;;;;39.28;30.77;;;11.70;93.60;;;;;;6247728;22;20422;-71
2022/12/26 08:15:40;;;;;;;42.17;30.80;;;11.60;93.80;;;;;;6275377;22;20299;-77
2022/12/26 08:18:06;;;;;;;49.63;34.50;;;11.60;93.80;;;;;;6275129;22;20007;-78
2022/12/26 08:20:32;;;;;;;43.58;31.38;;;11.60;93.70;;;;;;6274995;22;20373;-73
2022/12/26 08:22:57;;;;;;;41.83;31.23;;;11.60;93.80;;;;;;6274579;22;20004;-70
2022/12/26 08:25:23;;;;;;;44.55;33.35;;;11.60;93.80;;;;;;6275304;22;20118;-75
2022/12/26 08:27:49;;;;;;;44.50;32.67;;;11.70;93.80;;;;;;6275033;22;20002;-76
2022/12/26 08:30:14;;;;;;;45.88;32.95;;;11.70;93.80;;;;;;6276175;22;20067;-76
2022/12/26 08:32:41;;;;;;;40.70;31.27;;;11.70;93.50;;;;;;6275075;22;19995;-76
2022/12/26 08:35:07;;;;;;;44.28;32.03;;;11.70;93.70;;;;;;6275349;22;20027;-76
2022/12/26 08:37:34;;;;;;;44.88;33.85;;;11.60;93.70;;;;;;6275642;22;20445;-76
2022/12/26 08:40:00;;;;;;;53.42;37.90;;;11.70;93.80;;;;;;6274925;22;20003;-75
2022/12/26 08:42:25;;;;;;;50.55;34.17;;;11.50;93.70;;;;;;6275556;22;20056;-75
2022/12/26 08:44:51;;;;;;;48.72;34.25;;;11.40;93.80;;;;;;6249140;22;20046;-76
2022/12/26 08:47:17;;;;;;;47.30;36.60;;;11.50;94.20;;;;;;6276418;22;20004;-75
2022/12/26 08:49:43;;;;;;;53.00;39.00;;;11.50;94.00;;;;;;6248785;22;20004;-75
2022/12/26 08:52:08;;;;;;;47.72;36.78;;;11.60;93.90;;;;;;6248995;22;20426;-74
2022/12/26 08:54:34;;;;;;;47.30;35.20;;;11.60;94.00;;;;;;6248739;22;20035;-76
2022/12/26 08:57:00;;;;;;;43.58;33.97;;;11.70;94.00;;;;;;6276537;22;19999;-76
2022/12/26 08:59:25;;;;;;;48.60;35.70;;;11.80;93.90;;;;;;6249056;22;20019;-76
2022/12/26 09:01:52;;;;;;;50.25;35.45;;;11.80;93.90;;;;;;6275832;22;20023;-75
2022/12/26 09:04:18;;;;;;;44.25;33.75;;;;;;;;;;6275248;22;20054;-74
2022/12/26 09:06:44;;;;;;;44.85;33.75;;;11.90;93.60;;;;;;6275979;22;20054;-73
2022/12/26 09:09:11;;;;;;;46.40;34.10;;;11.90;93.70;;;;;;6275817;22;20007;-70
2022/12/26 09:11:37;;;;;;;47.25;35.05;;;;;;;;;;6275604;22;20074;-71
2022/12/26 09:14:04;;;;;;;46.67;34.63;;;12.10;93.50;;;;;;6274623;22;19999;-71
2022/12/26 09:16:37;;;;;;;47.65;35.00;;;12.10;93.60;;;;;;6272279;22;20434;-76
2022/12/26 09:19:04;;;;;;;45.33;32.97;;;12.20;93.60;;;;;;6248070;22;20082;-71
2022/12/26 09:21:30;;;;;;;48.63;35.78;;;12.20;93.50;;;;;;6275259;22;20007;-70
2022/12/26 09:24:23;;;;;;;47.63;35.38;;;12.30;93.20;;;;;;6275757;22;20004;-71
2022/12/26 09:26:48;;;;;;;47.95;35.60;;;12.30;93.30;;;;;;6275247;22;20010;-70
2022/12/26 09:29:14;;;;;;;46.83;35.00;;;12.40;93.30;;;;;;6275324;22;20023;-70
2022/12/26 09:31:40;;;;;;;46.75;35.22;;;12.40;93.20;;;;;;6273609;22;20008;-70
2022/12/26 09:34:07;;;;;;;48.90;35.00;;;12.40;93.10;;;;;;6274430;22;19999;-70
2022/12/26 09:36:36;;;;;;;43.33;33.17;;;12.50;93.10;;;;;;6274741;22;20041;-68
2022/12/26 09:39:03;;;;;;;48.67;35.20;;;12.50;93.10;;;;;;6275586;22;20003;-74
2022/12/26 09:41:50;;;;;;;44.67;34.58;;;12.50;93.10;;;;;;6275442;22;20000;-74
2022/12/26 09:44:28;;;;;;;43.80;32.85;;;12.50;93.20;;;;;;6275618;22;20012;-75
2022/12/26 09:47:07;;;;;;;44.20;34.45;;;12.60;92.90;;;;;;6275081;22;20126;-74
2022/12/26 09:49:48;;;;;;;44.53;33.58;;;12.60;93.10;;;;;;6274460;22;20422;-76
2022/12/26 09:52:19;;;;;;;45.95;34.88;;;12.60;93.00;;;;;;6248182;22;20426;-77
2022/12/26 09:54:51;;;;;;;44.72;33.15;;;12.70;93.00;;;;;;6276151;22;20027;-75
2022/12/26 09:57:38;;;;;;;47.30;35.38;;;12.70;93.00;;;;;;6276965;22;19996;-75
2022/12/26 10:00:06;;;;;;;46.45;34.67;;;12.80;92.90;;;;;;6278230;22;20008;-77
2022/12/26 10:02:33;;;;;;;45.13;33.70;;;12.80;92.90;;;;;;6277300;22;20046;-76
2022/12/26 10:04:59;;;;;;;43.85;34.05;;;12.80;92.80;;;;;;6277377;22;20064;-75
2022/12/26 10:07:43;;;;;;;49.33;36.22;;;12.90;92.90;;;;;;6277040;22;20390;-75
2022/12/26 10:10:35;;;;;;;49.50;36.10;;;12.80;92.80;;;;;;6276627;22;20003;-75
2022/12/26 10:13:24;;;;;;;47.05;34.03;;;12.90;92.80;;;;;;6276721;22;19996;-75
2022/12/26 10:16:10;;;;;;;49.03;35.53;;;12.90;92.80;;;;;;6255024;22;20000;-70
2022/12/26 10:19:10;;;;;;;47.75;35.72;;;13.00;92.50;;;;;;6264735;22;20053;-76
2022/12/26 10:21:53;;;;;;;47.53;35.42;;;13.00;92.70;;;;;;6338049;22;19999;-70
2022/12/26 10:24:25;;;;;;;45.28;33.72;;;12.90;92.60;;;;;;6336046;22;20486;-71
2022/12/26 10:26:58;;;;;;;49.53;36.80;;;13.00;92.60;;;;;;6335416;22;20421;-77
2022/12/26 10:29:38;;;;;;;49.03;34.60;;;13.00;92.60;;;;;;6335140;22;20383;-72
2022/12/26 10:32:18;;;;;;;44.95;34.55;;;13.10;92.40;;;;;;6332983;22;20066;-71
2022/12/26 10:34:47;;;;;;;46.13;35.35;;;13.00;92.60;;;;;;6336825;22;20006;-70
2022/12/26 10:37:21;;;;;;;50.92;35.72;;;13.10;92.60;;;;;;6335574;22;20417;-71
2022/12/26 10:39:53;;;;;;;47.13;34.50;;;13.20;92.60;;;;;;6336903;22;20003;-70
2022/12/26 10:42:47;;;;;;;49.20;35.45;;;13.20;92.40;;;;;;6337063;22;19999;-70
2022/12/26 10:45:42;;;;;;;47.67;35.25;;;13.20;92.30;;;;;;6336903;22;20003;-70
2022/12/26 10:48:12;;;;;;;46.67;33.67;;;13.20;92.30;;;;;;6323507;22;20082;-75
2022/12/26 10:50:39;;;;;;;49.45;36.67;;;13.20;92.30;;;;;;6336357;22;20002;-81
2022/12/26 10:53:11;;;;;;;44.95;32.53;;;13.30;92.40;;;;;;6336918;22;20519;-81
2022/12/26 10:55:37;;;;;;;44.60;33.90;;;13.30;92.70;;;;;;6338123;22;19994;-82
2022/12/26 10:58:13;;;;;;;47.83;35.53;;;13.40;92.60;;;;;;6338114;22;20007;-81
2022/12/26 11:00:39;;;;;;;44.03;33.45;;;13.40;92.50;;;;;;6336431;22;20002;-73
2022/12/26 11:03:14;;;;;;;45.33;33.85;;;13.50;92.40;;;;;;6335939;22;20006;-80
2022/12/26 11:05:52;;;;;;;45.17;34.28;;;13.50;92.30;;;;;;6338149;22;20002;-71
2022/12/26 11:08:19;;;;;;;46.85;35.58;;;13.60;92.30;;;;;;6334820;22;19999;-79
2022/12/26 11:11:20;;;;;;;43.95;34.47;;;13.50;92.10;;;;;;6337800;22;20083;-72
2022/12/26 11:13:57;;;;;;;48.17;34.35;;;13.50;92.10;;;;;;6335657;22;19999;-79
2022/12/26 11:16:38;;;;;;;48.40;35.30;;;13.60;92.00;;;;;;6335631;22;20033;-79
2022/12/26 11:19:04;;;;;;;45.42;33.10;;;13.50;92.00;;;;;;6336501;22;20041;-80
2022/12/26 11:21:32;;;;;;;43.88;33.08;;;13.50;92.00;;;;;;6336315;22;20003;-79
2022/12/26 11:24:18;;;;;;;44.30;33.85;;;13.50;92.00;;;;;;6335546;22;20037;-79
2022/12/26 11:26:44;;;;;;;45.75;35.15;;;13.50;92.00;;;;;;6336821;22;20033;-79
2022/12/26 11:29:25;;;;;;;47.60;35.28;;;13.50;92.00;;;;;;6337627;22;20003;-79
2022/12/26 11:31:58;;;;;;;45.70;33.58;;;13.60;92.10;;;;;;6334220;22;20363;-79
2022/12/26 11:34:33;;;;;;;45.22;33.70;;;13.60;92.00;;;;;;6335804;22;19995;-80
2022/12/26 11:36:59;;;;;;;44.10;33.35;;;13.60;91.90;;;;;;6336413;22;20019;-79
2022/12/26 11:39:32;;;;;;;50.05;35.00;;;13.60;91.80;;;;;;6337399;22;20309;-79
2022/12/26 11:41:58;;;;;;;52.17;37.83;;;13.60;91.80;;;;;;6338549;22;20002;-72
2022/12/26 11:44:32;;;;;;;66.55;36.40;;;13.60;91.70;;;;;;6337424;22;20038;-72
2022/12/26 11:47:13;;;;;;;49.10;34.97;;;13.60;91.60;;;;;;6337928;22;20005;-72
2022/12/26 11:49:49;;;;;;;49.38;34.83;;;13.50;91.80;;;;;;6337896;22;20084;-70
2022/12/26 11:52:36;;;;;;;50.03;35.88;;;13.50;91.80;;;;;;6337995;22;20005;-72
2022/12/26 11:55:22;;;;;;;47.42;35.72;;;13.50;91.80;;;;;;6337782;22;20021;-72
2022/12/26 11:58:05;;;;;;;45.47;34.42;;;13.50;91.80;;;;;;6337802;22;20006;-72
2022/12/26 12:01:06;;;;;;;50.00;36.63;;;13.60;91.50;;;;;;6337169;22;20005;-73
2022/12/26 12:03:31;;;;;;;;;;;13.60;91.70;;;;;;6244188;22;20056;-72
2022/12/26 12:06:22;;;;;;;47.50;34.15;;;13.60;91.60;;;;;;6338216;22;19955;-72
2022/12/26 12:08:59;;;;;;;;;;;13.60;91.70;;;;;;6337994;22;20025;-72
2022/12/26 12:11:36;;;;;;;44.97;33.83;;;13.50;91.60;;;;;;6337690;22;19898;-72
2022/12/26 12:14:30;;;;;;;47.08;36.55;;;13.50;91.60;;;;;;6336966;22;20026;-72
2022/12/26 12:17:15;;;;;;;48.15;34.65;;;13.50;91.70;;;;;;6338279;22;19999;-72
2022/12/26 12:20:02;;;;;;;49.70;36.38;;;13.40;91.70;;;;;;6333846;22;20014;-72
2022/12/26 12:22:49;;;;;;;51.38;37.95;;;13.50;91.80;;;;;;6337173;22;20367;-72
2022/12/26 12:25:29;;;;;;;50.97;36.45;;;13.50;91.80;;;;;;6337242;22;20295;-72
2022/12/26 12:28:16;;;;;;;44.90;35.63;;;13.50;91.80;;;;;;6337209;22;20402;-72
2022/12/26 12:30:50;;;;;;;46.88;37.25;;;13.60;91.80;;;;;;6336032;22;20359;-73
2022/12/26 12:33:33;;;;;;;50.47;38.28;;;13.50;91.80;;;;;;6336397;22;20022;-72
2022/12/26 12:36:02;;;;;;;49.40;37.40;;;13.50;91.80;;;;;;6337073;22;20005;-73
2022/12/26 12:38:31;;;;;;;51.30;38.17;;;13.50;91.80;;;;;;6336296;22;20003;-72
2022/12/26 12:41:00;;;;;;;51.17;39.58;;;13.60;91.90;;;;;;6337894;22;20005;-71
2022/12/26 12:43:41;;;;;;;54.45;40.00;;;13.60;92.00;;;;;;6336958;22;20009;-71
2022/12/26 12:46:30;;;;;;;53.67;41.05;;;13.60;92.00;;;;;;6337830;22;20056;-71
2022/12/26 12:49:10;;;;;;;53.15;40.00;;;13.60;92.00;;;;;;6337519;22;20009;-77
2022/12/26 12:52:10;;;;;;;52.05;39.42;;;13.50;92.00;;;;;;6307025;22;20082;-79
2022/12/26 12:54:42;;;;;;;51.28;38.58;;;13.50;92.10;;;;;;6308194;22;20077;-80
2022/12/26 12:57:26;;;;;;;54.63;40.65;;;13.50;92.10;;;;;;6335654;22;20147;-80
2022/12/26 13:00:12;;;;;;;53.67;40.72;;;13.50;92.10;;;;;;6337769;22;20432;-80
2022/12/26 13:02:44;;;;;;;53.83;40.22;;;13.50;92.20;;;;;;6334633;22;19999;-80
2022/12/26 13:05:31;;;;;;;56.17;42.03;;;13.40;92.20;;;;;;6335997;22;20003;-79
2022/12/26 13:08:06;;;;;;;54.15;41.10;;;13.50;92.30;;;;;;6336942;22;20026;-79
2022/12/26 13:10:36;;;;;;;56.00;41.80;;;13.50;92.30;;;;;;6335258;22;20484;-79
2022/12/26 13:13:40;;;;;;;55.38;41.88;;;13.50;92.30;;;;;;6335906;22;20006;-79
2022/12/26 13:16:15;;;;;;;50.67;38.45;;;13.50;92.30;;;;;;6328795;22;20432;-79
2022/12/26 13:18:54;;;;;;;54.80;40.42;;;13.40;92.30;;;;;;6335757;22;20026;-79
2022/12/26 13:21:21;;;;;;;56.85;41.17;;;13.40;92.30;;;;;;6335894;22;19999;-79
2022/12/26 13:26:49;;;;;;;53.08;39.38;;;13.40;92.40;;;;;;6338356;22;20014;-79
2022/12/26 13:29:29;;;;;;;49.00;38.50;;;13.40;92.40;;;;;;6337767;22;20006;-81
2022/12/26 13:31:57;;;;;;;51.50;40.42;;;13.40;92.40;;;;;;6338729;22;20031;-80
2022/12/26 13:34:24;;;;;;;53.00;40.72;;;13.40;92.50;;;;;;6338458;22;20413;-80
2022/12/26 13:36:53;;;;;;;50.47;38.70;;;13.40;92.50;;;;;;6336822;22;19999;-79
2022/12/26 13:39:39;;;;;;;54.23;39.93;;;13.40;92.60;;;;;;6338466;22;20022;-79
2022/12/26 13:44:52;;;;;;;53.50;41.08;;;13.40;92.60;;;;;;6339190;22;20021;-72
2022/12/26 13:47:37;;;;;;;54.70;40.55;;;13.40;92.60;;;;;;6311784;22;20382;-72
2022/12/26 13:50:39;;;;;;;49.83;38.72;;;13.40;92.60;;;;;;6339935;22;20006;-71
2022/12/26 13:53:25;;;;;;;50.63;37.72;;;13.40;92.70;;;;;;6338602;22;19999;-72
2022/12/26 13:55:53;;;;;;;51.92;40.38;;;13.40;92.60;;;;;;6338100;22;20036;-72
2022/12/26 13:58:27;;;;;;;57.72;41.47;;;13.30;92.60;;;;;;6339205;22;20321;-72
2022/12/26 14:01:24;;;;;;;55.13;40.53;;;13.30;92.60;;;;;;6338816;22;20086;-72
2022/12/26 14:03:53;;;;;;;52.08;39.83;;;13.30;92.60;;;;;;6339250;22;19998;-72
2022/12/26 14:06:43;;;;;;;53.30;40.40;;;13.30;92.70;;;;;;6309434;22;20366;-72
2022/12/26 14:09:21;;;;;;;;;;;13.30;92.70;;;;;;6339752;22;20003;-72
2022/12/26 14:11:50;;;;;;;51.67;38.15;;;13.30;92.70;;;;;;6338594;22;19905;-72
2022/12/26 14:14:52;;;;;;;53.10;40.00;;;13.30;92.80;;;;;;6337972;22;19999;-72
2022/12/26 14:17:33;;;;;;;50.90;40.38;;;13.30;92.80;;;;;;6338676;22;20060;-72
2022/12/26 14:20:26;;;;;;;55.38;42.03;;;13.30;92.90;;;;;;6339022;22;20464;-72
2022/12/26 14:23:04;;;;;;;51.45;40.45;;;13.30;92.90;;;;;;6338658;22;19999;-72
2022/12/26 14:25:36;;;;;;;55.00;41.47;;;13.30;92.90;;;;;;6338690;22;19999;-72
2022/12/26 14:28:49;;;;;;;53.47;41.40;;;13.30;92.90;;;;;;6338241;22;20010;-72
2022/12/26 14:31:30;;;;;;;51.15;38.80;;;13.30;93.00;;;;;;6279982;22;20022;-72
2022/12/26 14:34:05;;;;;;;59.08;41.58;;;13.30;93.00;;;;;;6338520;22;19999;-72
2022/12/26 14:36:42;;;;;;;55.55;41.92;;;13.30;93.00;;;;;;6337951;22;19998;-72
2022/12/26 14:39:42;;;;;;;58.60;43.92;;;13.20;92.90;;;;;;6338754;22;19999;-72
2022/12/26 14:45:02;;;;;;;54.33;41.28;;;13.20;93.00;;;;;;6339018;22;20040;-72
2022/12/26 14:47:47;;;;;;;59.78;44.83;;;13.20;92.90;;;;;;6311277;22;20014;-76
2022/12/26 14:50:31;;;;;;;56.38;42.28;;;13.10;92.90;;;;;;6338469;22;19999;-71
2022/12/26 14:53:41;;;;;;;61.22;44.90;;;13.10;92.90;;;;;;6338917;22;20413;-71
2022/12/26 14:56:09;;;;;;;54.28;41.80;;;13.00;92.90;;;;;;6332086;22;20383;-76
2022/12/26 14:58:45;;;;;;;56.20;41.60;;;13.00;93.00;;;;;;6339190;22;20086;-72
2022/12/26 15:01:16;;;;;;;56.25;42.15;;;13.10;92.90;;;;;;6339279;22;20003;-72
2022/12/26 15:04:00;;;;;;;51.13;40.22;;;13.10;92.90;;;;;;6339764;22;19999;-72
2022/12/26 15:06:44;;;;;;;59.10;42.70;;;13.00;92.80;;;;;;6338968;22;19998;-72
2022/12/26 15:09:47;;;;;;;53.20;40.50;;;13.00;92.80;;;;;;6338471;22;20026;-72
2022/12/26 15:12:16;;;;;;;56.38;41.88;;;13.00;92.80;;;;;;6309055;22;20440;-72
2022/12/26 15:15:27;;;;;;;58.33;44.25;;;13.00;92.90;;;;;;6338022;22;20325;-72